< < Back
Terminal Aerodrome Forecast


Current Version              Previous Versions:   1  2  3  4  5  6  7  8  9  

Terminal Aerodrome Forecast

141
FTUS42 KJAX 280837 AAA
TAFJAX
TAF AMD
KJAX 280837Z 2809/2906 06005KT P6SM SCT020
     FM281300 04008KT P6SM VCSH SCT025 BKN060
     FM281700 03012G20KT P6SM VCSH BKN030 BKN060
     FM290000 01006KT P6SM SCT025 SCT060=

Latest METAR

145
SAUS80 KWBC 290300 CCA
MTRJAX
METAR KJAX 290256Z 35003KT 10SM FEW250 21/19 A3005 RMK AO2 SLP176
T02110194 51012


USA.gov is the U.S. government's official web portal to all federal, state and local government web resources and services.